Meteosat more information blitzortung!


Radar lluvias  rain snow radar


Visita nuestra red de sitios de meteo:

Altres Coses Documentation for the template used

Template model
MeteotemplateWebsite of another weatherstation



No requiere especial atención con respecto al clima.    No hay Alarmas

Pagina Historial Weather Underground texto

Diario Resumen Junio 24, 2018 Unidades:  Métrico    impérial   Tanto
« Anterior Dia
Siguiente Dia »
Diario Semana Mensual Anual Personalizada
  Actual: Alto: Baja: Media:
Temperatura: -6.7 °C -17.8 °C -8.3 °C -7.6 °C
Punto de rocío: -9.8 °C -17.8 °C -10.7 °C -10.3 °C
Humedad: 70 % Humidity % 67 % 72 %
Velocidad del Viento: 6.4 km/h 0 km/h 3.1 km/h 6.4 km/h
Ráfagas de viento: 3.1 km/h 0 km/h - -
Viento:NE - - SE
Pression baro: 34296.8 hPa 0 hPa 34229.1 hPa -
Précipitaciones: 0 mm      
Historical Graphs
 
 
Datos de tabla para Junio 24, 2018
Tiempo Temperatura Punto de rocío Pression baro Viento Velocidad del Viento Ráfagas de viento Humedad Las precipitaciones Rate ( Hora )
-17.8 °C -17.8 °C 0 hPa Calm     Humidity % 0 mm
00:01 -6.1 °C -9.7 °C 34296.8 hPa SW 6 km/h 3.7 km/h 67 % 0 mm
00:06 -6.1 °C -9.7 °C 34296.8 hPa SW 9 km/h 5.6 km/h 67 % 0 mm
00:11 -6.1 °C -9.7 °C 34296.8 hPa SSE 6 km/h 3.7 km/h 67 % 0 mm
00:16 -6.1 °C -9.5 °C 34296.8 hPa ENE 9 km/h 5 km/h 68 % 0 mm
00:21 -6.1 °C -9.5 °C 34296.8 hPa ENE 3.1 km/h 1.6 km/h 68 % 0 mm
00:26 -6.1 °C -9.4 °C 34296.8 hPa NE 3.1 km/h 2.9 km/h 69 % 0 mm
00:31 -6.1 °C -9.4 °C 34296.8 hPa East 8 km/h 3.7 km/h 69 % 0 mm
00:36 -6.7 °C -9.9 °C 34296.8 hPa SE 6 km/h 3.7 km/h 69 % 0 mm
00:41 -6.7 °C -9.9 °C 34296.8 hPa SE 6 km/h 1.8 km/h 69 % 0 mm
00:46 -6.7 °C -9.9 °C 34296.8 hPa SSW 6 km/h 4.2 km/h 69 % 0 mm
00:51 -6.7 °C -9.8 °C 34296.8 hPa ESE 6 km/h 2.6 km/h 70 % 0 mm
00:56 -7.2 °C -10.3 °C 34296.8 hPa SE 3.1 km/h   70 % 0 mm
01:01 -6.7 °C -9.8 °C 34296.8 hPa ENE 6 km/h 3.7 km/h 70 % 0 mm
01:06 -7.2 °C -10.3 °C 34296.8 hPa South 6 km/h 3.9 km/h 70 % 0 mm
01:11 -7.2 °C -10.3 °C 34262.9 hPa SE 9 km/h 3.9 km/h 70 % 0 mm
01:16 -7.2 °C -10.3 °C 34262.9 hPa ENE 9 km/h 4.3 km/h 70 % 0 mm
01:21 -7.2 °C -10.3 °C 34262.9 hPa WSW 6 km/h 1.8 km/h 70 % 0 mm
01:26 -7.2 °C -10.3 °C 34262.9 hPa SE 6 km/h 3.9 km/h 70 % 0 mm
01:31 -7.2 °C -10.3 °C 34262.9 hPa South 9 km/h 4.7 km/h 70 % 0 mm
01:36 -7.2 °C -10.3 °C 34262.9 hPa NE 9 km/h 5.5 km/h 70 % 0 mm
01:41 -7.2 °C -10.2 °C 34262.9 hPa West 3.1 km/h 2.1 km/h 71 % 0 mm
01:46 -7.2 °C -10.1 °C 34262.9 hPa SE 6.4 km/h 3.4 km/h 72 % 0 mm
01:51 -7.2 °C -10.1 °C 34262.9 hPa SSE 6.4 km/h 6 km/h 72 % 0 mm
01:56 -7.2 °C -10.1 °C 34262.9 hPa SE 9 km/h 4.3 km/h 72 % 0 mm
02:01 -7.2 °C -10.1 °C 34262.9 hPa NE 6.4 km/h 3.7 km/h 72 % 0 mm
02:06 -7.2 °C -10.1 °C 34262.9 hPa ESE 6 km/h 2.9 km/h 72 % 0 mm
02:11 -7.2 °C -9.9 °C 34262.9 hPa ESE 3.1 km/h 2.9 km/h 73 % 0 mm
02:16 -7.2 °C -9.9 °C 34229.1 hPa SE 6 km/h 2.1 km/h 73 % 0 mm
02:21 -7.2 °C -9.9 °C 34229.1 hPa SSE 6 km/h 3.1 km/h 73 % 0 mm
02:26 -7.2 °C -9.9 °C 34229.1 hPa NE 6 km/h 2.9 km/h 73 % 0 mm
02:31 -7.8 °C -10.5 °C 34229.1 hPa South 9 km/h 5.6 km/h 73 % 0 mm
02:36 -7.8 °C -10.5 °C 34229.1 hPa NW 9 km/h 0.8 km/h 73 % 0 mm
02:41 -7.8 °C -10.4 °C 34229.1 hPa NNW 6 km/h 4.2 km/h 74 % 0 mm
02:46 -7.8 °C -10.5 °C 34229.1 hPa East 9 km/h 4.3 km/h 73 % 0 mm
02:51 -7.8 °C -10.4 °C 34262.9 hPa SE 9 km/h 3.7 km/h 74 % 0 mm
02:56 -7.8 °C -10.4 °C 34262.9 hPa SE 6 km/h 3.4 km/h 74 % 0 mm
03:01 -7.8 °C -10.4 °C 34262.9 hPa ESE 6 km/h 3.1 km/h 74 % 0 mm
03:06 -7.8 °C -10.4 °C 34229.1 hPa North 9 km/h 4.7 km/h 74 % 0 mm
03:11 -7.8 °C -10.4 °C 34229.1 hPa East 6 km/h 4.3 km/h 74 % 0 mm
03:16 -7.8 °C -10.4 °C 34229.1 hPa SE 6.4 km/h 3.7 km/h 74 % 0 mm
03:21 -7.8 °C -10.4 °C 34229.1 hPa NNW 5 km/h 2.3 km/h 74 % 0 mm
03:26 -7.8 °C -10.4 °C 34229.1 hPa NE 6.4 km/h 3.7 km/h 74 % 0 mm
03:31 -7.8 °C -10.5 °C 34229.1 hPa East 6 km/h 5.1 km/h 73 % 0 mm
03:36 -7.8 °C -10.5 °C 34229.1 hPa North 6 km/h 2.9 km/h 73 % 0 mm
03:41 -7.8 °C -10.4 °C 34229.1 hPa SE 3.1 km/h 1.6 km/h 74 % 0 mm
03:46 -7.8 °C -10.4 °C 34229.1 hPa SE 6.4 km/h 4.7 km/h 74 % 0 mm
03:51 -7.8 °C -10.3 °C 34229.1 hPa SSE 6 km/h 3.9 km/h 75 % 0 mm
03:56 -7.8 °C -10.3 °C 34229.1 hPa ENE 9 km/h 4.3 km/h 75 % 0 mm
04:01 -7.8 °C -10.4 °C 34229.1 hPa SE 8 km/h 4.3 km/h 74 % 0 mm
04:06 -7.8 °C -10.4 °C 34229.1 hPa SSE 6 km/h 3.9 km/h 74 % 0 mm
04:11 -7.8 °C -10.4 °C 34229.1 hPa NNE 6 km/h 4.2 km/h 74 % 0 mm
04:16 -7.8 °C -10.4 °C 34229.1 hPa NE 9 km/h 4.3 km/h 74 % 0 mm
04:21 -7.8 °C -10.4 °C 34229.1 hPa SSE 11.9 km/h 3.9 km/h 74 % 0 mm
04:26 -7.8 °C -10.4 °C 34229.1 hPa SE 6 km/h 3.9 km/h 74 % 0 mm
04:31 -7.8 °C -10.5 °C 34229.1 hPa SE 6 km/h 3.1 km/h 73 % 0 mm
04:36 -7.8 °C -10.5 °C 34229.1 hPa SSE 6 km/h 0.3 km/h 73 % 0 mm
04:41 -7.8 °C -10.5 °C 34229.1 hPa East 9 km/h 5 km/h 73 % 0 mm
04:46 -7.8 °C -10.5 °C 34229.1 hPa WSW 3.1 km/h   73 % 0 mm
04:51 -7.8 °C -10.6 °C 34229.1 hPa South 3.1 km/h   72 % 0 mm
04:56 -7.8 °C -10.7 °C 34229.1 hPa SW 3.1 km/h 0.3 km/h 71 % 0 mm
05:01 -7.8 °C -10.7 °C 34229.1 hPa South 9 km/h 4.7 km/h 71 % 0 mm
05:06 -7.8 °C -10.7 °C 34229.1 hPa ENE 6 km/h 4.3 km/h 71 % 0 mm
05:11 -7.8 °C -10.6 °C 34229.1 hPa NE 6.4 km/h 5.5 km/h 72 % 0 mm
05:16 -7.8 °C -10.6 °C 34229.1 hPa NE 9 km/h 6.4 km/h 72 % 0 mm
05:21 -7.8 °C -10.5 °C 34229.1 hPa NNE 6 km/h 4.3 km/h 73 % 0 mm
05:26 -7.8 °C -10.4 °C 34229.1 hPa WNW 6 km/h 2.6 km/h 74 % 0 mm
05:31 -7.8 °C -10.4 °C 34229.1 hPa NE 6.4 km/h 5.5 km/h 74 % 0 mm
05:36 -7.8 °C -10.5 °C 34229.1 hPa ENE 9 km/h 5 km/h 73 % 0 mm
05:41 -7.8 °C -10.4 °C 34229.1 hPa NE 6 km/h 2.9 km/h 74 % 0 mm
05:46 -7.8 °C -10.3 °C 34229.1 hPa NE 6.4 km/h 3.4 km/h 75 % 0 mm
05:51 -7.8 °C -10.3 °C 34229.1 hPa ENE 3.1 km/h 2.1 km/h 75 % 0 mm
05:56 -7.8 °C -10.2 °C 34229.1 hPa NE 9 km/h 6.8 km/h 76 % 0 mm
06:01 -7.8 °C -10.4 °C 34229.1 hPa ESE 9 km/h 5.1 km/h 74 % 0 mm
06:06 -7.8 °C -10.2 °C 34229.1 hPa ENE 6 km/h 2.6 km/h 76 % 0 mm
06:11 -8.3 °C -10.7 °C 34229.1 hPa NNW 6 km/h 3.7 km/h 76 % 0 mm
06:16 -7.8 °C -10.3 °C 34229.1 hPa ENE 6 km/h 4.3 km/h 75 % 0 mm
06:21 -7.8 °C -10.4 °C 34229.1 hPa SE 3.1 km/h 1.8 km/h 74 % 0 mm
06:26 -7.8 °C -10.4 °C 34229.1 hPa ENE 9 km/h 3.1 km/h 74 % 0 mm
06:31 -7.8 °C -10.3 °C 34229.1 hPa West 3.1 km/h 0.5 km/h 75 % 0 mm
06:36 -7.8 °C -10.2 °C 34229.1 hPa SE 6 km/h 3.7 km/h 76 % 0 mm
06:41 -7.8 °C -10.2 °C 34262.9 hPa SE 9 km/h 3.7 km/h 76 % 0 mm
06:46 -7.8 °C -10.1 °C 34262.9 hPa NE 6 km/h 4.3 km/h 77 % 0 mm
06:51 -8.3 °C -10.6 °C 34262.9 hPa NNW 9 km/h 3.9 km/h 77 % 0 mm
06:56 -7.8 °C -10.1 °C 34262.9 hPa East 6 km/h 3.1 km/h 77 % 0 mm
07:01 -7.8 °C -10.2 °C 34262.9 hPa NE 6 km/h 3.1 km/h 76 % 0 mm
07:06 -7.8 °C -10.1 °C 34262.9 hPa ENE 6 km/h 3.7 km/h 77 % 0 mm
07:11 -7.8 °C -10.2 °C 34262.9 hPa ENE 8 km/h 5.6 km/h 76 % 0 mm
07:16 -7.8 °C -10.2 °C 34296.8 hPa WSW 6 km/h 4.3 km/h 76 % 0 mm
07:21 -7.8 °C -10.3 °C 34262.9 hPa ENE 6 km/h 2.6 km/h 75 % 0 mm
07:26 -7.8 °C -10.3 °C 34262.9 hPa East 6 km/h 2.1 km/h 75 % 0 mm
07:31 -7.8 °C -10.3 °C 34296.8 hPa SW 6 km/h 2.6 km/h 75 % 0 mm
07:36 -7.8 °C -10.3 °C 34262.9 hPa SW 3.1 km/h 1.8 km/h 75 % 0 mm
07:41 -7.8 °C -10.3 °C 34262.9 hPa SE 6 km/h 3.4 km/h 75 % 0 mm
07:46 -7.8 °C -10.3 °C 34262.9 hPa ENE 6 km/h 2.6 km/h 75 % 0 mm
07:51 -7.8 °C -10.4 °C 34262.9 hPa SW 6 km/h 3.4 km/h 74 % 0 mm
07:56 -7.2 °C -9.8 °C 34262.9 hPa SW 6 km/h 3.4 km/h 74 % 0 mm
08:01 -7.2 °C -9.8 °C 34262.9 hPa SSE 6 km/h 2.6 km/h 74 % 0 mm
08:06 -7.2 °C -9.8 °C 34262.9 hPa NE 9 km/h 5.5 km/h 74 % 0 mm
08:11 -7.2 °C -9.8 °C 34262.9 hPa NE 9 km/h 5.1 km/h 74 % 0 mm
08:16 -7.2 °C -9.8 °C 34296.8 hPa NE 9 km/h 3.7 km/h 74 % 0 mm
08:21 -7.2 °C -9.8 °C 34296.8 hPa NNW 6 km/h 1.8 km/h 74 % 0 mm
08:26 -7.2 °C -10.1 °C 34296.8 hPa SSE 6 km/h 2.9 km/h 72 % 0 mm
08:31 -7.2 °C -9.9 °C 34296.8 hPa NNW 6 km/h 2.9 km/h 73 % 0 mm
08:36 -7.2 °C -10.1 °C 34262.9 hPa NNE 6.4 km/h 3.1 km/h 72 % 0 mm
08:41 -7.2 °C -10.2 °C 34262.9 hPa SW 6 km/h 3.4 km/h 71 % 0 mm
08:46 -6.7 °C -9.8 °C 34296.8 hPa NW 6 km/h 3.7 km/h 70 % 0 mm
08:51 -6.7 °C -9.8 °C 34296.8 hPa NE 6.4 km/h 3.1 km/h 70 % 0 mm
Alcoletge
Elogios de Weather Underground - 2 mb

Guión original por  Jim McMurry - jmcmurry@mwt.net Adaptado para la plantilla por  Wim van der Kuil - Leuven-Template.eu

Usted encontrará nuestra información del tiempo también en:

Weather Underground

Iberian Peninsula Weather Network